createdAt,value
2023-04-12T00:01:21.983Z,7.00
2023-04-12T00:03:51.163Z,7.00
2023-04-12T00:06:27.630Z,7.00
2023-04-12T00:08:56.216Z,7.00
2023-04-12T00:11:25.132Z,8.00
2023-04-12T00:13:55.984Z,6.60
2023-04-12T00:16:25.269Z,6.20
2023-04-12T00:18:54.396Z,7.00
2023-04-12T00:21:24.035Z,6.40
2023-04-12T00:23:52.691Z,6.00
2023-04-12T00:26:22.338Z,5.00
2023-04-12T00:28:51.332Z,5.00
2023-04-12T00:31:23.062Z,6.00
2023-04-12T00:33:51.734Z,5.00
2023-04-12T00:36:21.338Z,5.80
2023-04-12T00:38:49.979Z,6.00
2023-04-12T00:41:19.145Z,7.00
2023-04-12T00:43:48.202Z,9.80
2023-04-12T00:46:19.898Z,5.80
2023-04-12T00:48:50.102Z,6.80
2023-04-12T00:51:22.626Z,5.00
2023-04-12T00:53:51.277Z,5.40
2023-04-12T00:56:23.701Z,5.60
2023-04-12T00:58:52.434Z,7.40
2023-04-12T01:01:21.759Z,5.60
2023-04-12T01:03:53.314Z,5.80
2023-04-12T01:06:29.853Z,6.80
2023-04-12T01:09:05.330Z,6.20
2023-04-12T01:11:41.186Z,6.60
2023-04-12T01:14:16.651Z,6.80
2023-04-12T01:16:51.248Z,8.60
2023-04-12T01:19:46.185Z,7.40
2023-04-12T01:22:39.573Z,9.00
2023-04-12T01:25:26.446Z,5.80
2023-04-12T01:28:01.047Z,5.40
2023-04-12T01:30:30.970Z,6.00
2023-04-12T01:33:02.999Z,7.20
2023-04-12T01:35:35.185Z,6.80
2023-04-12T01:38:05.494Z,7.20
2023-04-12T01:40:36.707Z,6.00
2023-04-12T01:43:08.386Z,6.20
2023-04-12T01:45:37.469Z,7.40
2023-04-12T01:48:09.187Z,9.80
2023-04-12T01:50:46.025Z,5.00
2023-04-12T01:53:22.240Z,6.00
2023-04-12T01:55:53.632Z,7.00
2023-04-12T01:58:26.119Z,5.40
2023-04-12T02:00:58.642Z,5.00
2023-04-12T02:03:30.894Z,7.00
2023-04-12T02:06:01.035Z,5.00
2023-04-12T02:08:30.540Z,5.00
2023-04-12T02:10:59.111Z,3.40
2023-04-12T02:13:29.458Z,6.00
2023-04-12T02:15:59.298Z,3.80
2023-04-12T02:18:28.208Z,5.00
2023-04-12T02:20:58.780Z,4.60
2023-04-12T02:23:27.808Z,1.00
2023-04-12T02:25:56.510Z,4.60
2023-04-12T02:28:25.547Z,2.80
2023-04-12T02:30:55.993Z,2.80
2023-04-12T02:33:28.239Z,2.00
2023-04-12T02:35:59.661Z,4.20
2023-04-12T02:38:28.810Z,3.00
2023-04-12T02:40:58.799Z,3.80
2023-04-12T02:43:27.864Z,3.00
2023-04-12T02:46:03.618Z,2.00
2023-04-12T02:48:39.866Z,3.40
2023-04-12T02:51:09.319Z,1.40
2023-04-12T02:53:39.685Z,2.00
2023-04-12T02:56:21.806Z,2.00
2023-04-12T02:58:57.668Z,1.40
2023-04-12T03:01:46.587Z,4.60
2023-04-12T03:04:31.427Z,4.80
2023-04-12T03:07:02.212Z,2.00
2023-04-12T03:09:38.864Z,1.20
2023-04-12T03:12:08.898Z,1.80
2023-04-12T03:14:44.465Z,2.00
2023-04-12T03:17:14.422Z,1.00
2023-04-12T03:19:43.943Z,1.00
2023-04-12T03:22:13.367Z,0.80
2023-04-12T03:24:47.134Z,1.20
2023-04-12T03:27:21.174Z,1.00
2023-04-12T03:29:52.374Z,1.00
2023-04-12T03:32:25.045Z,2.40
2023-04-12T03:34:54.326Z,2.80
2023-04-12T03:37:26.925Z,4.20
2023-04-12T03:39:59.066Z,2.20
2023-04-12T03:42:33.673Z,3.20
2023-04-12T03:45:14.618Z,0.80
2023-04-12T03:47:49.148Z,3.20
2023-04-12T03:50:20.764Z,1.20
2023-04-12T03:52:56.251Z,1.00
2023-04-12T03:55:30.975Z,2.00
2023-04-12T03:58:02.608Z,1.00
2023-04-12T04:00:36.618Z,3.80
2023-04-12T04:03:11.956Z,4.20
2023-04-12T04:06:01.363Z,1.40
2023-04-12T04:08:33.692Z,1.00
2023-04-12T04:11:02.719Z,1.00
2023-04-12T04:13:39.100Z,1.00
2023-04-12T04:16:11.444Z,2.00
2023-04-12T04:18:43.725Z,1.00
2023-04-12T04:21:16.069Z,1.00
2023-04-12T04:23:48.058Z,1.60
2023-04-12T04:26:18.557Z,1.80
2023-04-12T04:28:55.397Z,5.00
2023-04-12T04:31:34.342Z,3.00
2023-04-12T04:34:06.921Z,4.00
2023-04-12T04:36:42.383Z,2.40
2023-04-12T04:39:11.503Z,4.00
2023-04-12T04:41:42.317Z,4.00
2023-04-12T04:44:21.963Z,2.80
2023-04-12T04:47:00.858Z,4.00
2023-04-12T04:49:31.056Z,4.00
2023-04-12T04:52:20.435Z,4.40
2023-04-12T04:54:50.568Z,4.40
2023-04-12T04:57:21.227Z,3.60
2023-04-12T04:59:50.675Z,3.20
2023-04-12T05:02:20.098Z,2.00
2023-04-12T05:04:51.358Z,1.40
2023-04-12T05:07:26.290Z,2.40
2023-04-12T05:09:55.610Z,2.00
2023-04-12T05:12:24.553Z,2.00
2023-04-12T05:15:10.651Z,2.00
2023-04-12T05:17:42.694Z,5.20
2023-04-12T05:20:13.501Z,4.20
2023-04-12T05:22:42.827Z,3.00
2023-04-12T05:25:11.791Z,5.40
2023-04-12T05:27:50.447Z,6.00
2023-04-12T05:30:21.687Z,1.40
2023-04-12T05:32:51.979Z,4.80
2023-04-12T05:35:22.717Z,5.00
2023-04-12T05:37:56.462Z,5.00
2023-04-12T05:40:25.948Z,2.80
2023-04-12T05:42:56.093Z,6.20
2023-04-12T05:45:27.197Z,3.40
2023-04-12T05:47:56.981Z,5.40
2023-04-12T05:50:27.412Z,4.20
2023-04-12T05:52:57.166Z,2.00
2023-04-12T05:55:32.381Z,5.40
2023-04-12T05:58:02.203Z,3.00
2023-04-12T06:00:32.095Z,2.00
2023-04-12T06:03:01.406Z,4.60
2023-04-12T06:05:31.725Z,3.00
2023-04-12T06:08:01.091Z,1.20
2023-04-12T06:10:29.792Z,7.60
2023-04-12T06:13:00.293Z,5.80
2023-04-12T06:15:34.659Z,3.40
2023-04-12T06:18:04.098Z,3.00
2023-04-12T06:20:39.917Z,2.60
2023-04-12T06:23:09.228Z,8.40
2023-04-12T06:25:39.065Z,3.00
2023-04-12T06:28:08.427Z,1.00
2023-04-12T06:30:44.547Z,5.00
2023-04-12T06:33:14.122Z,3.20
2023-04-12T06:35:44.368Z,5.40
2023-04-12T06:38:14.958Z,3.80
2023-04-12T06:40:43.648Z,2.80
2023-04-12T06:43:13.642Z,3.60
2023-04-12T06:45:42.910Z,2.00
2023-04-12T06:48:12.240Z,3.00
2023-04-12T06:50:41.349Z,5.60
2023-04-12T06:53:13.525Z,3.00
2023-04-12T06:55:42.589Z,3.00
2023-04-12T06:58:11.806Z,5.80
2023-04-12T07:00:40.481Z,3.00
2023-04-12T07:03:11.749Z,3.00
2023-04-12T07:05:41.036Z,3.80
2023-04-12T07:08:11.555Z,1.00
2023-04-12T07:10:40.340Z,5.00
2023-04-12T07:13:09.579Z,4.00
2023-04-12T07:15:38.255Z,5.20
2023-04-12T07:18:07.921Z,3.00
2023-04-12T07:20:36.898Z,5.40
2023-04-12T07:23:05.976Z,6.40
2023-04-12T07:25:38.696Z,5.20
2023-04-12T07:28:09.147Z,4.20
2023-04-12T07:30:39.866Z,4.20
2023-04-12T07:33:19.256Z,5.00
2023-04-12T07:35:48.968Z,5.40
2023-04-12T07:38:17.839Z,7.80
2023-04-12T07:40:50.068Z,6.00
2023-04-12T07:43:19.286Z,6.20
2023-04-12T07:45:48.249Z,4.60
2023-04-12T07:48:17.311Z,6.00
2023-04-12T07:50:46.906Z,6.40
2023-04-12T07:53:20.459Z,7.00
2023-04-12T07:55:51.208Z,8.20
2023-04-12T07:58:22.282Z,5.00
2023-04-12T08:00:51.755Z,5.80
2023-04-12T08:03:21.219Z,4.60
2023-04-12T08:05:53.726Z,7.80
2023-04-12T08:08:23.259Z,5.60
2023-04-12T08:10:53.897Z,11.80
2023-04-12T08:13:23.085Z,6.40
2023-04-12T08:15:52.649Z,3.80
2023-04-12T08:18:21.782Z,6.00
2023-04-12T08:20:50.618Z,7.40
2023-04-12T08:23:19.700Z,5.80
2023-04-12T08:25:48.530Z,7.00
2023-04-12T08:28:18.980Z,6.80
2023-04-12T08:30:47.716Z,6.20
2023-04-12T08:33:17.336Z,6.80
2023-04-12T08:35:46.241Z,5.60
2023-04-12T08:38:16.593Z,8.40
2023-04-12T08:40:46.653Z,6.60
2023-04-12T08:43:18.948Z,6.00
2023-04-12T08:45:48.470Z,6.60
2023-04-12T08:48:19.320Z,5.60
2023-04-12T08:50:50.592Z,5.60
2023-04-12T08:53:20.053Z,5.20
2023-04-12T08:55:49.331Z,4.20
2023-04-12T08:58:20.967Z,4.00
2023-04-12T09:00:50.204Z,7.20
2023-04-12T09:03:19.372Z,5.20
2023-04-12T09:05:48.478Z,6.00
2023-04-12T09:08:18.480Z,6.00
2023-04-12T09:10:47.331Z,2.80
2023-04-12T09:13:16.582Z,5.00
2023-04-12T09:15:52.936Z,6.00
2023-04-12T09:18:23.362Z,7.00
2023-04-12T09:20:52.718Z,5.20
2023-04-12T09:23:25.220Z,6.40
2023-04-12T09:25:54.349Z,2.00
2023-04-12T09:28:26.028Z,4.20
2023-04-12T09:30:57.407Z,4.80
2023-04-12T09:33:35.313Z,3.00
2023-04-12T09:36:06.072Z,5.80
2023-04-12T09:38:37.026Z,4.20
2023-04-12T09:41:20.821Z,3.60
2023-04-12T09:43:52.877Z,6.00
2023-04-12T09:46:25.156Z,4.20
2023-04-12T09:48:55.933Z,3.40
2023-04-12T09:51:29.700Z,3.20
2023-04-12T09:54:01.057Z,4.20
2023-04-12T09:56:32.511Z,5.40
2023-04-12T09:59:03.942Z,4.00
2023-04-12T10:01:37.653Z,6.00
2023-04-12T10:04:09.804Z,2.60
2023-04-12T10:06:38.983Z,2.60
2023-04-12T10:09:08.830Z,5.20
2023-04-12T10:11:40.620Z,6.60
2023-04-12T10:14:11.807Z,3.60
2023-04-12T10:16:44.589Z,2.00
2023-04-12T10:19:14.555Z,2.60
2023-04-12T10:21:43.372Z,2.40
2023-04-12T10:24:12.736Z,4.40
2023-04-12T10:26:44.034Z,4.00
2023-04-12T10:29:27.076Z,2.80
2023-04-12T10:31:58.468Z,3.00
2023-04-12T10:34:31.174Z,3.20
2023-04-12T10:37:01.747Z,3.00
2023-04-12T10:39:41.760Z,2.00
2023-04-12T10:42:25.457Z,4.80
2023-04-12T10:44:58.696Z,4.00
2023-04-12T10:48:03.935Z,3.00
2023-04-12T10:50:35.437Z,3.00
2023-04-12T10:53:28.655Z,3.60
2023-04-12T10:55:58.290Z,6.00
2023-04-12T10:58:59.038Z,3.20
2023-04-12T11:01:31.920Z,5.40
2023-04-12T11:04:10.275Z,2.80
2023-04-12T11:06:59.130Z,2.60
2023-04-12T11:09:48.707Z,5.20
2023-04-12T11:12:31.105Z,3.00
2023-04-12T11:15:02.276Z,3.60
2023-04-12T11:17:54.116Z,3.00
2023-04-12T11:20:24.567Z,3.20
2023-04-12T11:22:55.378Z,5.00
2023-04-12T11:25:27.326Z,5.60
2023-04-12T11:27:56.502Z,4.40
2023-04-12T11:30:29.511Z,5.20
2023-04-12T11:32:58.615Z,4.00
2023-04-12T11:35:31.789Z,4.40
2023-04-12T11:38:01.436Z,2.60
2023-04-12T11:40:31.156Z,4.40
2023-04-12T11:43:00.980Z,3.00
2023-04-12T11:45:32.039Z,4.80
2023-04-12T11:48:01.241Z,3.00
2023-04-12T11:50:32.574Z,3.20
2023-04-12T11:53:12.438Z,3.40
2023-04-12T11:55:41.202Z,3.00
2023-04-12T11:58:10.977Z,3.00
2023-04-12T12:00:42.247Z,2.00
2023-04-12T12:03:11.924Z,4.00
2023-04-12T12:05:43.764Z,3.40
2023-04-12T12:08:14.711Z,2.80
2023-04-12T12:11:00.016Z,2.40
2023-04-12T12:13:45.853Z,4.60
2023-04-12T12:16:14.784Z,3.00
2023-04-12T12:18:44.677Z,2.80
2023-04-12T12:21:16.042Z,4.00
2023-04-12T12:23:45.829Z,2.00
2023-04-12T12:26:22.576Z,2.40
2023-04-12T12:28:52.751Z,4.40
2023-04-12T12:31:23.882Z,2.00
2023-04-12T12:33:56.901Z,3.00
2023-04-12T12:36:36.162Z,3.40
2023-04-12T12:39:10.703Z,3.60
2023-04-12T12:41:40.435Z,4.20
2023-04-12T12:44:11.308Z,4.00
2023-04-12T12:46:53.277Z,2.00
2023-04-12T12:49:23.178Z,3.20
2023-04-12T12:51:53.360Z,3.20
2023-04-12T12:54:39.335Z,1.40
2023-04-12T12:57:09.713Z,3.40
2023-04-12T12:59:42.135Z,1.80
2023-04-12T13:02:11.460Z,3.20
2023-04-12T13:04:40.778Z,5.00
2023-04-12T13:07:11.227Z,3.00
2023-04-12T13:09:42.986Z,3.00
2023-04-12T13:12:12.176Z,4.20
2023-04-12T13:14:41.981Z,1.80
2023-04-12T13:17:10.554Z,3.00
2023-04-12T13:19:40.720Z,3.20
2023-04-12T13:22:10.820Z,1.60
2023-04-12T13:24:39.948Z,3.00
2023-04-12T13:27:09.014Z,3.60
2023-04-12T13:29:38.864Z,3.80
2023-04-12T13:32:08.107Z,2.80
2023-04-12T13:34:38.606Z,3.00
2023-04-12T13:37:07.850Z,6.40
2023-04-12T13:39:58.406Z,3.20
2023-04-12T13:42:27.157Z,1.60
2023-04-12T13:44:57.009Z,2.40
2023-04-12T13:47:25.809Z,3.40
2023-04-12T13:49:55.449Z,3.80
2023-04-12T13:52:24.276Z,4.60
2023-04-12T13:54:54.618Z,3.80
2023-04-12T13:57:24.739Z,9.60
2023-04-12T13:59:53.626Z,3.20
2023-04-12T14:02:22.446Z,5.00
2023-04-12T14:04:53.091Z,5.40
2023-04-12T14:07:22.892Z,4.00
2023-04-12T14:09:51.945Z,3.20
2023-04-12T14:12:20.643Z,3.40
2023-04-12T14:14:52.522Z,3.40
2023-04-12T14:17:41.314Z,2.60
2023-04-12T14:20:12.552Z,4.60
2023-04-12T14:22:41.207Z,3.00
2023-04-12T14:25:11.805Z,4.00
2023-04-12T14:27:40.444Z,3.00
2023-04-12T14:30:11.561Z,3.00
2023-04-12T14:32:41.319Z,2.80
2023-04-12T14:35:10.730Z,1.00
2023-04-12T14:37:40.686Z,2.60
2023-04-12T14:40:10.566Z,3.60
2023-04-12T14:42:39.516Z,3.80
2023-04-12T14:45:11.953Z,3.60
2023-04-12T14:47:41.638Z,3.00
2023-04-12T14:50:11.358Z,2.60
2023-04-12T14:52:40.446Z,3.00
2023-04-12T14:55:10.837Z,2.00
2023-04-12T14:57:41.873Z,3.60
2023-04-12T15:00:15.609Z,3.00
2023-04-12T15:02:46.213Z,2.60
2023-04-12T15:05:15.665Z,2.00
2023-04-12T15:07:46.106Z,3.60
2023-04-12T15:10:16.211Z,1.20
2023-04-12T15:12:44.849Z,3.80
2023-04-12T15:15:15.698Z,4.00
2023-04-12T15:17:44.537Z,3.00
2023-04-12T15:20:17.226Z,4.00
2023-04-12T15:22:46.160Z,2.00
2023-04-12T15:25:15.580Z,5.00
2023-04-12T15:27:44.521Z,4.00
2023-04-12T15:30:17.745Z,3.00
2023-04-12T15:32:47.147Z,2.80
2023-04-12T15:35:25.966Z,4.40
2023-04-12T15:37:55.639Z,2.40
2023-04-12T15:40:25.074Z,3.00
2023-04-12T15:42:53.944Z,4.60
2023-04-12T15:45:24.606Z,2.60
2023-04-12T15:47:55.270Z,4.80
2023-04-12T15:50:24.413Z,6.00
2023-04-12T15:52:55.326Z,2.60
2023-04-12T15:55:24.238Z,3.00
2023-04-12T15:57:54.239Z,5.60
2023-04-12T16:00:27.052Z,6.40
2023-04-12T16:02:57.530Z,7.00
2023-04-12T16:05:27.228Z,3.20
2023-04-12T16:07:56.697Z,5.00
2023-04-12T16:10:26.236Z,3.20
2023-04-12T16:12:56.541Z,2.40
2023-04-12T16:15:27.756Z,3.00
2023-04-12T16:17:56.625Z,4.00
2023-04-12T16:20:26.206Z,6.00
2023-04-12T16:22:56.205Z,6.00
2023-04-12T16:25:27.353Z,6.60
2023-04-12T16:27:57.212Z,7.80
2023-04-12T16:30:28.218Z,8.00
2023-04-12T16:32:58.060Z,28.50
2023-04-12T16:35:27.225Z,5.40
2023-04-12T16:37:56.146Z,9.80
2023-04-12T16:40:26.936Z,5.40
2023-04-12T16:42:55.918Z,4.60
2023-04-12T16:45:24.950Z,7.00
2023-04-12T16:47:57.635Z,5.60
2023-04-12T16:50:27.028Z,6.80
2023-04-12T16:52:56.389Z,5.80
2023-04-12T16:55:25.572Z,5.80
2023-04-12T16:57:54.888Z,7.20
2023-04-12T17:00:29.014Z,7.00
2023-04-12T17:02:59.353Z,9.80
2023-04-12T17:05:30.333Z,7.00
2023-04-12T17:08:00.576Z,6.40
2023-04-12T17:10:30.040Z,10.00
2023-04-12T17:12:59.643Z,9.20
2023-04-12T17:15:29.980Z,9.20
2023-04-12T17:18:05.187Z,10.00
2023-04-12T17:20:34.940Z,5.40
2023-04-12T17:23:04.438Z,9.00
2023-04-12T17:25:33.869Z,8.60
2023-04-12T17:28:03.636Z,9.00
2023-04-12T17:30:33.153Z,10.00
2023-04-12T17:33:03.528Z,11.80
2023-04-12T17:35:32.835Z,19.20
2023-04-12T17:38:22.125Z,12.60
2023-04-12T17:40:51.800Z,10.20
2023-04-12T17:43:20.956Z,20.80
2023-04-12T17:45:50.205Z,15.80
2023-04-12T17:48:20.519Z,16.80
2023-04-12T17:50:49.585Z,12.00
2023-04-12T17:53:18.479Z,21.40
2023-04-12T17:55:50.592Z,31.20
2023-04-12T17:58:19.973Z,17.00
2023-04-12T18:00:49.011Z,16.80
2023-04-12T18:03:18.035Z,23.60
2023-04-12T18:06:09.032Z,19.20
2023-04-12T18:08:38.759Z,17.40
2023-04-12T18:11:08.248Z,39.00
2023-04-12T18:13:37.213Z,25.20
2023-04-12T18:16:07.966Z,33.75
2023-04-12T18:18:37.141Z,17.00
2023-04-12T18:21:08.297Z,13.00
2023-04-12T18:23:37.357Z,19.20
2023-04-12T18:26:07.107Z,18.20
2023-04-12T18:28:39.059Z,19.20
2023-04-12T18:31:10.277Z,19.20
2023-04-12T18:33:40.160Z,18.00
2023-04-12T18:36:11.100Z,21.80
2023-04-12T18:38:40.438Z,19.40
2023-04-12T18:41:14.283Z,25.20
2023-04-12T18:43:43.812Z,25.00
2023-04-12T18:46:17.934Z,23.60
2023-04-12T18:48:48.260Z,34.25
2023-04-12T18:51:18.796Z,32.75
2023-04-12T18:53:50.170Z,37.00
2023-04-12T18:56:23.325Z,40.25
2023-04-12T18:58:55.606Z,40.50
2023-04-12T19:01:26.248Z,36.25
2023-04-12T19:03:55.468Z,32.00
2023-04-12T19:06:27.264Z,28.40
2023-04-12T19:08:56.511Z,19.20
2023-04-12T19:11:26.724Z,37.75
2023-04-12T19:13:56.673Z,31.00
2023-04-12T19:16:26.563Z,20.80
2023-04-12T19:18:57.132Z,21.80
2023-04-12T19:21:29.822Z,11.80
2023-04-12T19:23:58.664Z,15.40
2023-04-12T19:26:28.835Z,16.40
2023-04-12T19:28:58.891Z,16.00
2023-04-12T19:31:29.128Z,1.00
2023-04-12T19:33:57.917Z,16.60
2023-04-12T19:36:29.687Z,12.80
2023-04-12T19:38:58.818Z,16.40
2023-04-12T19:41:28.686Z,19.40
2023-04-12T19:43:57.649Z,16.00
2023-04-12T19:46:27.304Z,18.60
2023-04-12T19:48:56.131Z,16.60
2023-04-12T19:51:25.641Z,14.60
2023-04-12T19:53:55.609Z,15.20
2023-04-12T19:56:25.603Z,15.00
2023-04-12T19:58:54.807Z,13.00
2023-04-12T20:01:24.432Z,12.20
2023-04-12T20:03:53.349Z,12.60
2023-04-12T20:06:23.334Z,13.20
2023-04-12T20:08:52.383Z,14.00
2023-04-12T20:11:24.306Z,12.20
2023-04-12T20:13:53.462Z,14.00
2023-04-12T20:16:24.350Z,13.40
2023-04-12T20:18:56.236Z,15.60
2023-04-12T20:21:26.205Z,17.80
2023-04-12T20:23:55.422Z,17.20
2023-04-12T20:26:28.842Z,19.00
2023-04-12T20:28:57.921Z,16.80
2023-04-12T20:31:28.700Z,16.20
2023-04-12T20:33:58.431Z,16.60
2023-04-12T20:36:29.683Z,16.40
2023-04-12T20:38:58.753Z,16.80
2023-04-12T20:41:33.651Z,15.80
2023-04-12T20:44:02.817Z,15.20
2023-04-12T20:46:36.828Z,14.20
2023-04-12T20:49:07.636Z,13.40
2023-04-12T20:51:37.699Z,12.40
2023-04-12T20:54:07.267Z,13.80
2023-04-12T20:56:38.250Z,17.80
2023-04-12T20:59:08.156Z,9.80
2023-04-12T21:01:37.458Z,18.20
2023-04-12T21:04:08.074Z,13.80
2023-04-12T21:06:37.581Z,19.40
2023-04-12T21:09:06.978Z,24.00
2023-04-12T21:11:37.690Z,22.20
2023-04-12T21:14:07.333Z,19.80
2023-04-12T21:16:39.019Z,18.40
2023-04-12T21:19:08.412Z,22.60
2023-04-12T21:21:37.426Z,17.00
2023-04-12T21:24:07.184Z,19.80
2023-04-12T21:26:37.778Z,16.60
2023-04-12T21:29:07.212Z,16.60
2023-04-12T21:31:39.092Z,19.80
2023-04-12T21:34:09.210Z,18.80
2023-04-12T21:36:38.738Z,24.00
2023-04-12T21:39:07.775Z,23.00
2023-04-12T21:41:38.370Z,24.00
2023-04-12T21:44:07.351Z,19.00
2023-04-12T21:46:36.505Z,21.80
2023-04-12T21:49:05.213Z,22.60
2023-04-12T21:51:34.479Z,18.20
2023-04-12T21:54:03.326Z,22.60
2023-04-12T21:56:32.456Z,22.40
2023-04-12T21:59:03.740Z,20.20
2023-04-12T22:01:34.933Z,21.60
2023-04-12T22:04:04.570Z,20.20
2023-04-12T22:06:33.585Z,13.80
2023-04-12T22:09:04.820Z,14.00
2023-04-12T22:11:34.415Z,12.20
2023-04-12T22:14:04.629Z,19.40
2023-04-12T22:16:33.684Z,20.00
2023-04-12T22:19:02.555Z,19.00
2023-04-12T22:21:33.454Z,17.20
2023-04-12T22:24:02.218Z,15.80
2023-04-12T22:26:33.831Z,16.40
2023-04-12T22:29:03.027Z,23.80
2023-04-12T22:31:33.482Z,19.60
2023-04-12T22:34:02.302Z,23.00
2023-04-12T22:36:37.362Z,22.40
2023-04-12T22:39:06.199Z,19.40
2023-04-12T22:41:38.062Z,17.80
2023-04-12T22:44:08.055Z,23.40
2023-04-12T22:46:39.306Z,16.00
2023-04-12T22:49:08.040Z,23.20
2023-04-12T22:51:37.000Z,26.25
2023-04-12T22:54:08.698Z,23.00
2023-04-12T22:56:45.237Z,24.20
2023-04-12T22:59:14.782Z,16.00
2023-04-12T23:01:46.961Z,20.80
2023-04-12T23:04:16.351Z,21.80
2023-04-12T23:06:47.360Z,17.00
2023-04-12T23:09:16.525Z,20.00
2023-04-12T23:11:47.398Z,7.40
2023-04-12T23:14:17.829Z,17.20
2023-04-12T23:16:51.741Z,16.20
2023-04-12T23:19:20.414Z,17.00
2023-04-12T23:21:49.427Z,13.60
2023-04-12T23:24:18.614Z,16.80
2023-04-12T23:26:47.932Z,13.40
2023-04-12T23:29:16.462Z,15.40
2023-04-12T23:31:46.257Z,18.20
2023-04-12T23:34:16.623Z,15.60
2023-04-12T23:36:45.798Z,16.40
2023-04-12T23:39:14.725Z,18.00
2023-04-12T23:41:43.713Z,12.80
2023-04-12T23:44:12.546Z,21.80
2023-04-12T23:46:41.873Z,19.80
2023-04-12T23:49:10.490Z,21.00
2023-04-12T23:51:41.083Z,17.60
2023-04-12T23:54:09.756Z,19.00
2023-04-12T23:56:38.808Z,18.00
2023-04-12T23:59:07.744Z,21.80
